DKH147 ZPPP-ZSFZ
Flight info
| Callsign | DKH147 |
|---|---|
| Flight time | 1h 55m |
| Altitude | 351 |
| Route | LXI9Z LXI A599 POU G471 XEBUL DCT NUVGA DCT VETIB W155 TEBON DCT |
| Aircraft | A321/M-SDE2E3GHIJ3J4J5LM1ORWXY/LB1D1 |
Departure
| Time | 2026-04-25 11:32 |
|---|---|
| Airport | Kunming Changshui International Airport (ZPPP) |
Arrival
| Time | 2026-04-25 13:27 |
|---|---|
| Airport | Fuzhou Changle International Airport (ZSFZ) |
| Time | Latitude | Longitude | Altitude | Speed | Heading |
|---|---|---|---|---|---|
| 2026-04-25 11:31 | 24.99520 | 102.84832 | 9606 ft | 262 kts | 218° |
| 2026-04-25 11:32 | 24.98068 | 102.83589 | 10141 ft | 265 kts | 219° |
| 2026-04-25 11:32 | 24.96614 | 102.82337 | 10663 ft | 266 kts | 219° |
| 2026-04-25 11:32 | 24.95151 | 102.81082 | 11152 ft | 269 kts | 217° |
| 2026-04-25 11:32 | 24.93427 | 102.80299 | 11681 ft | 275 kts | 187° |
| 2026-04-25 11:33 | 24.91529 | 102.80678 | 12137 ft | 287 kts | 154° |
| 2026-04-25 11:33 | 24.90018 | 102.82131 | 12602 ft | 294 kts | 128° |
| 2026-04-25 11:33 | 24.88944 | 102.84067 | 13102 ft | 299 kts | 117° |
| 2026-04-25 11:33 | 24.88042 | 102.86142 | 13602 ft | 303 kts | 115° |
| 2026-04-25 11:34 | 24.87142 | 102.88249 | 14113 ft | 305 kts | 116° |
| 2026-04-25 11:34 | 24.86180 | 102.90343 | 14569 ft | 308 kts | 118° |
| 2026-04-25 11:34 | 24.85138 | 102.92427 | 14944 ft | 316 kts | 121° |
| 2026-04-25 11:34 | 24.83994 | 102.94568 | 15060 ft | 333 kts | 122° |
| 2026-04-25 11:35 | 24.82752 | 102.96792 | 15182 ft | 348 kts | 123° |
| 2026-04-25 11:35 | 24.81436 | 102.99101 | 15293 ft | 364 kts | 123° |
| 2026-04-25 11:35 | 24.80057 | 103.01507 | 15409 ft | 379 kts | 123° |
| 2026-04-25 11:35 | 24.78747 | 103.04087 | 15523 ft | 394 kts | 113° |
| 2026-04-25 11:36 | 24.77738 | 103.06937 | 15744 ft | 404 kts | 111° |
| 2026-04-25 11:36 | 24.76734 | 103.09838 | 16164 ft | 407 kts | 111° |
| 2026-04-25 11:36 | 24.75726 | 103.12758 | 16610 ft | 409 kts | 110° |
| 2026-04-25 11:36 | 24.74709 | 103.15688 | 17061 ft | 412 kts | 111° |
| 2026-04-25 11:37 | 24.73678 | 103.18645 | 17497 ft | 415 kts | 111° |
| 2026-04-25 11:37 | 24.72638 | 103.21620 | 17946 ft | 417 kts | 111° |
| 2026-04-25 11:37 | 24.71595 | 103.24607 | 18364 ft | 420 kts | 111° |
| 2026-04-25 11:37 | 24.70544 | 103.27620 | 18727 ft | 423 kts | 111° |
| 2026-04-25 11:38 | 24.69487 | 103.30653 | 19097 ft | 426 kts | 111° |
| 2026-04-25 11:38 | 24.68426 | 103.33700 | 19471 ft | 428 kts | 111° |
| 2026-04-25 11:38 | 24.67360 | 103.36762 | 19836 ft | 430 kts | 111° |
| 2026-04-25 11:38 | 24.66285 | 103.39840 | 20205 ft | 432 kts | 111° |
| 2026-04-25 11:39 | 24.65205 | 103.42931 | 20559 ft | 434 kts | 111° |
| 2026-04-25 11:39 | 24.64119 | 103.46038 | 20916 ft | 436 kts | 111° |
| 2026-04-25 11:39 | 24.63025 | 103.49156 | 21282 ft | 438 kts | 111° |
| 2026-04-25 11:39 | 24.61920 | 103.52287 | 21605 ft | 441 kts | 111° |
| 2026-04-25 11:40 | 24.60807 | 103.55439 | 21953 ft | 444 kts | 111° |
| 2026-04-25 11:40 | 24.59692 | 103.58607 | 22268 ft | 446 kts | 111° |
| 2026-04-25 11:40 | 24.58572 | 103.61795 | 22631 ft | 448 kts | 111° |
| 2026-04-25 11:40 | 24.57449 | 103.64993 | 22980 ft | 450 kts | 111° |
| 2026-04-25 11:41 | 24.56319 | 103.68203 | 23316 ft | 452 kts | 111° |
| 2026-04-25 11:41 | 24.55182 | 103.71431 | 23659 ft | 454 kts | 111° |
| 2026-04-25 11:41 | 24.54112 | 103.74696 | 23930 ft | 456 kts | 106° |
| 2026-04-25 11:41 | 24.53374 | 103.78090 | 24193 ft | 458 kts | 103° |
| 2026-04-25 11:42 | 24.52662 | 103.81507 | 24454 ft | 460 kts | 103° |
| 2026-04-25 11:42 | 24.51945 | 103.84890 | 24715 ft | 462 kts | 103° |
| 2026-04-25 11:42 | 24.51208 | 103.88333 | 24988 ft | 464 kts | 103° |
| 2026-04-25 11:42 | 24.50465 | 103.91794 | 25260 ft | 466 kts | 103° |
| 2026-04-25 11:43 | 24.49720 | 103.95267 | 25513 ft | 469 kts | 103° |
| 2026-04-25 11:43 | 24.48971 | 103.98756 | 25797 ft | 471 kts | 103° |
| 2026-04-25 11:43 | 24.48219 | 104.02258 | 26045 ft | 473 kts | 103° |
| 2026-04-25 11:43 | 24.47463 | 104.05777 | 26308 ft | 475 kts | 103° |
| 2026-04-25 11:44 | 24.46708 | 104.09316 | 26558 ft | 477 kts | 103° |
| 2026-04-25 11:44 | 24.45950 | 104.12873 | 26796 ft | 480 kts | 103° |
| 2026-04-25 11:44 | 24.45187 | 104.16445 | 27065 ft | 482 kts | 103° |
| 2026-04-25 11:44 | 24.44417 | 104.20028 | 27322 ft | 484 kts | 103° |
| 2026-04-25 11:45 | 24.43893 | 104.22459 | 27474 ft | 485 kts | 103° |
| 2026-04-25 11:45 | 24.42859 | 104.27249 | 27798 ft | 488 kts | 103° |
| 2026-04-25 11:45 | 24.42075 | 104.30879 | 28031 ft | 491 kts | 103° |
| 2026-04-25 11:45 | 24.41286 | 104.34532 | 28279 ft | 493 kts | 103° |
| 2026-04-25 11:46 | 24.40493 | 104.38192 | 28507 ft | 495 kts | 103° |
| 2026-04-25 11:46 | 24.39692 | 104.41876 | 28744 ft | 497 kts | 103° |
| 2026-04-25 11:46 | 24.38889 | 104.45569 | 28974 ft | 499 kts | 103° |
| 2026-04-25 11:46 | 24.38082 | 104.49282 | 29209 ft | 501 kts | 103° |
| 2026-04-25 11:47 | 24.37272 | 104.53009 | 29412 ft | 503 kts | 103° |
| 2026-04-25 11:47 | 24.36457 | 104.56746 | 29711 ft | 504 kts | 103° |
| 2026-04-25 11:47 | 24.35642 | 104.60478 | 30051 ft | 503 kts | 103° |
| 2026-04-25 11:47 | 24.34829 | 104.64207 | 30318 ft | 503 kts | 103° |
| 2026-04-25 11:48 | 24.34015 | 104.67937 | 30558 ft | 503 kts | 103° |
| 2026-04-25 11:48 | 24.33201 | 104.71667 | 30820 ft | 503 kts | 103° |
| 2026-04-25 11:48 | 24.32387 | 104.75398 | 31076 ft | 503 kts | 103° |
| 2026-04-25 11:48 | 24.31572 | 104.79125 | 31335 ft | 503 kts | 103° |
| 2026-04-25 11:49 | 24.30755 | 104.82853 | 31598 ft | 503 kts | 103° |
| 2026-04-25 11:49 | 24.29934 | 104.86579 | 31869 ft | 503 kts | 104° |
| 2026-04-25 11:49 | 24.29109 | 104.90305 | 32144 ft | 503 kts | 104° |
| 2026-04-25 11:49 | 24.28286 | 104.94026 | 32397 ft | 503 kts | 103° |
| 2026-04-25 11:50 | 24.27461 | 104.97761 | 32648 ft | 504 kts | 103° |
| 2026-04-25 11:50 | 24.26638 | 105.01495 | 32850 ft | 506 kts | 104° |
| 2026-04-25 11:50 | 24.25809 | 105.05250 | 33040 ft | 507 kts | 103° |
| 2026-04-25 11:50 | 24.24976 | 105.09008 | 33268 ft | 509 kts | 103° |
| 2026-04-25 11:51 | 24.24140 | 105.12778 | 33513 ft | 509 kts | 103° |
| 2026-04-25 11:51 | 24.23304 | 105.16552 | 33763 ft | 510 kts | 103° |
| 2026-04-25 11:51 | 24.22465 | 105.20326 | 33997 ft | 510 kts | 103° |
| 2026-04-25 11:51 | 24.21615 | 105.24100 | 34203 ft | 511 kts | 104° |
| 2026-04-25 11:52 | 24.20729 | 105.27864 | 34416 ft | 511 kts | 105° |
| 2026-04-25 11:52 | 24.19825 | 105.31573 | 34623 ft | 511 kts | 105° |
| 2026-04-25 11:52 | 24.18894 | 105.35332 | 34822 ft | 511 kts | 105° |
| 2026-04-25 11:52 | 24.17962 | 105.39089 | 35023 ft | 512 kts | 105° |
| 2026-04-25 11:53 | 24.16119 | 105.46603 | 35121 ft | 510 kts | 105° |
| 2026-04-25 11:53 | 24.14297 | 105.54093 | 35119 ft | 509 kts | 105° |
| 2026-04-25 11:54 | 24.12475 | 105.61579 | 35119 ft | 508 kts | 105° |
| 2026-04-25 11:55 | 24.09769 | 105.72800 | 35113 ft | 509 kts | 103° |
| 2026-04-25 11:55 | 24.08232 | 105.80365 | 35116 ft | 509 kts | 101° |
| 2026-04-25 11:56 | 24.06826 | 105.87964 | 35117 ft | 509 kts | 101° |
| 2026-04-25 11:56 | 24.05376 | 105.95551 | 35108 ft | 510 kts | 102° |
| 2026-04-25 11:57 | 24.03857 | 106.03131 | 35114 ft | 510 kts | 102° |
| 2026-04-25 11:57 | 24.02321 | 106.10707 | 35100 ft | 510 kts | 102° |
| 2026-04-25 11:58 | 24.00791 | 106.18299 | 35102 ft | 511 kts | 101° |
| 2026-04-25 11:58 | 23.99273 | 106.25880 | 35093 ft | 511 kts | 102° |
| 2026-04-25 11:59 | 23.97747 | 106.33459 | 35097 ft | 510 kts | 102° |
| 2026-04-25 11:59 | 23.96213 | 106.41043 | 35098 ft | 511 kts | 102° |
| 2026-04-25 12:00 | 23.94164 | 106.51156 | 35088 ft | 512 kts | 102° |
| 2026-04-25 12:01 | 23.92170 | 106.62616 | 35093 ft | 511 kts | 92° |
| 2026-04-25 12:01 | 23.91672 | 106.70365 | 35104 ft | 511 kts | 92° |
| 2026-04-25 12:02 | 23.90896 | 106.81985 | 35107 ft | 511 kts | 92° |
| 2026-04-25 12:02 | 23.90371 | 106.89733 | 35109 ft | 511 kts | 92° |
| 2026-04-25 12:03 | 23.89840 | 106.97468 | 35108 ft | 510 kts | 92° |
| 2026-04-25 12:03 | 23.89316 | 107.05202 | 35105 ft | 510 kts | 92° |
| 2026-04-25 12:04 | 23.88791 | 107.12925 | 35103 ft | 510 kts | 92° |
| 2026-04-25 12:04 | 23.88258 | 107.20643 | 35095 ft | 509 kts | 92° |
| 2026-04-25 12:05 | 23.87714 | 107.28362 | 35086 ft | 509 kts | 92° |
| 2026-04-25 12:05 | 23.87168 | 107.36084 | 35089 ft | 510 kts | 92° |
| 2026-04-25 12:06 | 23.86631 | 107.43809 | 35089 ft | 510 kts | 92° |
| 2026-04-25 12:06 | 23.86089 | 107.51532 | 35096 ft | 511 kts | 92° |
| 2026-04-25 12:07 | 23.85535 | 107.59280 | 35094 ft | 511 kts | 92° |
| 2026-04-25 12:07 | 23.84980 | 107.67011 | 35087 ft | 510 kts | 92° |
| 2026-04-25 12:08 | 23.84417 | 107.74752 | 35118 ft | 511 kts | 93° |
| 2026-04-25 12:08 | 23.83847 | 107.82501 | 35109 ft | 512 kts | 92° |
| 2026-04-25 12:09 | 23.83331 | 107.90201 | 35107 ft | 512 kts | 91° |
| 2026-04-25 12:09 | 23.82964 | 107.98003 | 35101 ft | 511 kts | 91° |
| 2026-04-25 12:10 | 23.82629 | 108.05757 | 35095 ft | 511 kts | 91° |
| 2026-04-25 12:10 | 23.82244 | 108.13461 | 35104 ft | 512 kts | 91° |
| 2026-04-25 12:11 | 23.81817 | 108.21268 | 35110 ft | 512 kts | 92° |
| 2026-04-25 12:11 | 23.81375 | 108.29022 | 35110 ft | 512 kts | 92° |
| 2026-04-25 12:12 | 23.81006 | 108.35471 | 35113 ft | 512 kts | 91° |
| 2026-04-25 12:12 | 23.80497 | 108.44497 | 35112 ft | 512 kts | 91° |
| 2026-04-25 12:13 | 23.80052 | 108.52255 | 35100 ft | 512 kts | 91° |
| 2026-04-25 12:13 | 23.79597 | 108.60022 | 35102 ft | 513 kts | 91° |
| 2026-04-25 12:14 | 23.79143 | 108.67799 | 35110 ft | 513 kts | 92° |
| 2026-04-25 12:14 | 23.78686 | 108.75575 | 35105 ft | 513 kts | 91° |
| 2026-04-25 12:15 | 23.78230 | 108.83350 | 35109 ft | 513 kts | 91° |
| 2026-04-25 12:15 | 23.77764 | 108.91125 | 35109 ft | 513 kts | 91° |
| 2026-04-25 12:16 | 23.77291 | 108.98901 | 35102 ft | 513 kts | 91° |
| 2026-04-25 12:16 | 23.76820 | 109.06672 | 35108 ft | 513 kts | 91° |
| 2026-04-25 12:17 | 23.76292 | 109.14433 | 35109 ft | 513 kts | 97° |
| 2026-04-25 12:17 | 23.74835 | 109.22068 | 35108 ft | 513 kts | 102° |
| 2026-04-25 12:18 | 23.73296 | 109.29680 | 35104 ft | 513 kts | 101° |
| 2026-04-25 12:18 | 23.71770 | 109.37285 | 35101 ft | 513 kts | 101° |
| 2026-04-25 12:19 | 23.69488 | 109.48632 | 35105 ft | 513 kts | 101° |
| 2026-04-25 12:20 | 23.67944 | 109.56232 | 35099 ft | 512 kts | 102° |
| 2026-04-25 12:20 | 23.66393 | 109.63816 | 35106 ft | 512 kts | 102° |
| 2026-04-25 12:21 | 23.64837 | 109.71401 | 35115 ft | 512 kts | 102° |
| 2026-04-25 12:21 | 23.63271 | 109.78982 | 35114 ft | 512 kts | 102° |
| 2026-04-25 12:22 | 23.61699 | 109.86558 | 35122 ft | 512 kts | 102° |
| 2026-04-25 12:22 | 23.60121 | 109.94134 | 35130 ft | 512 kts | 102° |
| 2026-04-25 12:23 | 23.58542 | 110.01704 | 35125 ft | 511 kts | 102° |
| 2026-04-25 12:23 | 23.56978 | 110.09259 | 35121 ft | 511 kts | 102° |
| 2026-04-25 12:24 | 23.55396 | 110.16811 | 35117 ft | 511 kts | 102° |
| 2026-04-25 12:24 | 23.53806 | 110.24359 | 35114 ft | 511 kts | 102° |
| 2026-04-25 12:25 | 23.52219 | 110.31915 | 35117 ft | 511 kts | 102° |
| 2026-04-25 12:25 | 23.50631 | 110.39468 | 35115 ft | 511 kts | 102° |
| 2026-04-25 12:26 | 23.49093 | 110.47026 | 35109 ft | 511 kts | 101° |
| 2026-04-25 12:26 | 23.47573 | 110.54593 | 35119 ft | 511 kts | 101° |
| 2026-04-25 12:27 | 23.46045 | 110.62146 | 35119 ft | 511 kts | 102° |
| 2026-04-25 12:27 | 23.44490 | 110.69696 | 35115 ft | 511 kts | 102° |
| 2026-04-25 12:28 | 23.42929 | 110.77241 | 35114 ft | 511 kts | 102° |
| 2026-04-25 12:28 | 23.41341 | 110.84775 | 35112 ft | 511 kts | 102° |
| 2026-04-25 12:29 | 23.39737 | 110.92309 | 35114 ft | 511 kts | 102° |
| 2026-04-25 12:29 | 23.38139 | 110.99839 | 35111 ft | 511 kts | 102° |
| 2026-04-25 12:30 | 23.36549 | 111.07326 | 35112 ft | 511 kts | 102° |
| 2026-04-25 12:30 | 23.34943 | 111.14866 | 35121 ft | 511 kts | 102° |
| 2026-04-25 12:31 | 23.33372 | 111.22409 | 35127 ft | 511 kts | 102° |
| 2026-04-25 12:31 | 23.31841 | 111.29965 | 35128 ft | 511 kts | 102° |
| 2026-04-25 12:32 | 23.30301 | 111.37518 | 35124 ft | 511 kts | 102° |
| 2026-04-25 12:32 | 23.28748 | 111.45060 | 35127 ft | 511 kts | 102° |
| 2026-04-25 12:33 | 23.27195 | 111.52599 | 35130 ft | 511 kts | 102° |
| 2026-04-25 12:33 | 23.25630 | 111.60139 | 35130 ft | 511 kts | 102° |
| 2026-04-25 12:34 | 23.24032 | 111.67660 | 35129 ft | 511 kts | 103° |
| 2026-04-25 12:34 | 23.22428 | 111.75183 | 35131 ft | 511 kts | 103° |
| 2026-04-25 12:35 | 23.20825 | 111.82703 | 35132 ft | 510 kts | 103° |
| 2026-04-25 12:35 | 23.19243 | 111.90219 | 35131 ft | 510 kts | 102° |
| 2026-04-25 12:36 | 23.17694 | 111.97738 | 35128 ft | 510 kts | 102° |
| 2026-04-25 12:36 | 23.16142 | 112.05247 | 35124 ft | 509 kts | 102° |
| 2026-04-25 12:37 | 23.14573 | 112.12752 | 35118 ft | 509 kts | 103° |
| 2026-04-25 12:37 | 23.12993 | 112.20253 | 35118 ft | 510 kts | 103° |
| 2026-04-25 12:38 | 23.11382 | 112.27908 | 35119 ft | 510 kts | 103° |
| 2026-04-25 12:38 | 23.08243 | 112.42825 | 35111 ft | 510 kts | 103° |
| 2026-04-25 12:39 | 23.06378 | 112.58040 | 35118 ft | 510 kts | 93° |
| 2026-04-25 12:39 | 23.05347 | 112.73361 | 35114 ft | 510 kts | 93° |
| 2026-04-25 12:40 | 23.04309 | 112.88519 | 35106 ft | 510 kts | 93° |
| 2026-04-25 12:40 | 23.03226 | 113.03928 | 35103 ft | 511 kts | 94° |
| 2026-04-25 12:41 | 23.02286 | 113.19323 | 35090 ft | 510 kts | 86° |
| 2026-04-25 12:41 | 23.03864 | 113.34595 | 35101 ft | 509 kts | 81° |
| 2026-04-25 12:42 | 23.05473 | 113.49889 | 35092 ft | 510 kts | 81° |
| 2026-04-25 12:42 | 23.07100 | 113.65206 | 35097 ft | 511 kts | 81° |
| 2026-04-25 12:43 | 23.09285 | 113.80385 | 35094 ft | 505 kts | 65° |
| 2026-04-25 12:43 | 23.12604 | 113.86954 | 35118 ft | 492 kts | 46° |
| 2026-04-25 12:43 | 23.17814 | 114.00813 | 35101 ft | 505 kts | 71° |
| 2026-04-25 12:44 | 23.21874 | 114.15444 | 35095 ft | 506 kts | 69° |
| 2026-04-25 12:45 | 23.27521 | 114.34910 | 35113 ft | 508 kts | 70° |
| 2026-04-25 12:45 | 23.34491 | 114.59442 | 35113 ft | 510 kts | 70° |
| 2026-04-25 12:46 | 23.37967 | 114.71701 | 35119 ft | 510 kts | 70° |
| 2026-04-25 12:46 | 23.42134 | 114.86465 | 35134 ft | 510 kts | 70° |
| 2026-04-25 12:47 | 23.46295 | 115.01238 | 35142 ft | 510 kts | 70° |
| 2026-04-25 12:47 | 23.50442 | 115.16048 | 35167 ft | 511 kts | 70° |
| 2026-04-25 12:48 | 23.54583 | 115.30880 | 35144 ft | 512 kts | 70° |
| 2026-04-25 12:48 | 23.58704 | 115.45722 | 35135 ft | 512 kts | 70° |
| 2026-04-25 12:49 | 23.62824 | 115.60612 | 35142 ft | 513 kts | 70° |
| 2026-04-25 12:49 | 23.66928 | 115.75544 | 35175 ft | 514 kts | 71° |
| 2026-04-25 12:50 | 23.71047 | 115.90491 | 35172 ft | 515 kts | 71° |
| 2026-04-25 12:50 | 23.75148 | 116.05450 | 35158 ft | 514 kts | 71° |
| 2026-04-25 12:51 | 23.79210 | 116.20438 | 35160 ft | 516 kts | 71° |
| 2026-04-25 12:51 | 23.83291 | 116.35471 | 35159 ft | 516 kts | 71° |
| 2026-04-25 12:52 | 23.86619 | 116.47762 | 35182 ft | 516 kts | 71° |
| 2026-04-25 12:52 | 23.88647 | 116.55290 | 35177 ft | 516 kts | 71° |
| 2026-04-25 12:53 | 23.90661 | 116.62818 | 35160 ft | 516 kts | 72° |
| 2026-04-25 12:53 | 23.92672 | 116.70354 | 35151 ft | 516 kts | 72° |
| 2026-04-25 12:54 | 23.94698 | 116.77900 | 35156 ft | 517 kts | 71° |
| 2026-04-25 12:54 | 23.96723 | 116.85449 | 35156 ft | 517 kts | 72° |
| 2026-04-25 12:55 | 23.98394 | 116.91726 | 35153 ft | 518 kts | 72° |
| 2026-04-25 12:55 | 24.00742 | 117.00584 | 35151 ft | 519 kts | 72° |
| 2026-04-25 12:56 | 24.02752 | 117.08156 | 35181 ft | 519 kts | 72° |
| 2026-04-25 12:56 | 24.04767 | 117.15746 | 35177 ft | 519 kts | 72° |
| 2026-04-25 12:57 | 24.05770 | 117.19546 | 34960 ft | 520 kts | 72° |
| 2026-04-25 12:57 | 24.06770 | 117.23341 | 34726 ft | 519 kts | 72° |
| 2026-04-25 12:57 | 24.07770 | 117.27135 | 34501 ft | 519 kts | 72° |
| 2026-04-25 12:57 | 24.08771 | 117.30929 | 34222 ft | 519 kts | 72° |
| 2026-04-25 12:58 | 24.09770 | 117.34722 | 33708 ft | 518 kts | 72° |
| 2026-04-25 12:58 | 24.10765 | 117.38506 | 33192 ft | 517 kts | 72° |
| 2026-04-25 12:58 | 24.11756 | 117.42287 | 32676 ft | 517 kts | 73° |
| 2026-04-25 12:58 | 24.12850 | 117.46019 | 32171 ft | 514 kts | 66° |
| 2026-04-25 12:59 | 24.14378 | 117.49553 | 31674 ft | 512 kts | 57° |
| 2026-04-25 12:59 | 24.16325 | 117.52791 | 31188 ft | 506 kts | 49° |
| 2026-04-25 12:59 | 24.18612 | 117.55677 | 30726 ft | 499 kts | 43° |
| 2026-04-25 12:59 | 24.20995 | 117.58433 | 30268 ft | 497 kts | 43° |
| 2026-04-25 13:00 | 24.23366 | 117.61183 | 29745 ft | 494 kts | 43° |
| 2026-04-25 13:00 | 24.24919 | 117.62990 | 29385 ft | 491 kts | 43° |
| 2026-04-25 13:00 | 24.28037 | 117.66627 | 28674 ft | 487 kts | 43° |
| 2026-04-25 13:00 | 24.30347 | 117.69325 | 28152 ft | 484 kts | 43° |
| 2026-04-25 13:01 | 24.32640 | 117.72003 | 27636 ft | 480 kts | 43° |
| 2026-04-25 13:01 | 24.34914 | 117.74664 | 27149 ft | 476 kts | 43° |
| 2026-04-25 13:01 | 24.37173 | 117.77303 | 26639 ft | 472 kts | 43° |
| 2026-04-25 13:01 | 24.39416 | 117.79919 | 26160 ft | 470 kts | 43° |
| 2026-04-25 13:02 | 24.41647 | 117.82524 | 25676 ft | 467 kts | 43° |
| 2026-04-25 13:02 | 24.43868 | 117.85119 | 25245 ft | 466 kts | 42° |
| 2026-04-25 13:02 | 24.46088 | 117.87708 | 24815 ft | 463 kts | 42° |
| 2026-04-25 13:02 | 24.48291 | 117.90276 | 24626 ft | 462 kts | 42° |
| 2026-04-25 13:03 | 24.50489 | 117.92843 | 24652 ft | 462 kts | 42° |
| 2026-04-25 13:03 | 24.52694 | 117.95417 | 24652 ft | 463 kts | 42° |
| 2026-04-25 13:03 | 24.54902 | 117.97996 | 24659 ft | 463 kts | 42° |
| 2026-04-25 13:03 | 24.57078 | 118.00543 | 24664 ft | 463 kts | 42° |
| 2026-04-25 13:04 | 24.59279 | 118.03128 | 24662 ft | 463 kts | 42° |
| 2026-04-25 13:04 | 24.61478 | 118.05710 | 24662 ft | 463 kts | 42° |
| 2026-04-25 13:04 | 24.63678 | 118.08291 | 24655 ft | 463 kts | 43° |
| 2026-04-25 13:04 | 24.65885 | 118.10880 | 24671 ft | 466 kts | 42° |
| 2026-04-25 13:05 | 24.68100 | 118.13484 | 24668 ft | 467 kts | 42° |
| 2026-04-25 13:05 | 24.70318 | 118.16096 | 24668 ft | 467 kts | 42° |
| 2026-04-25 13:05 | 24.72537 | 118.18709 | 24578 ft | 468 kts | 42° |
| 2026-04-25 13:05 | 24.74749 | 118.21317 | 24348 ft | 466 kts | 42° |
| 2026-04-25 13:06 | 24.76957 | 118.23923 | 24123 ft | 464 kts | 42° |
| 2026-04-25 13:06 | 24.79154 | 118.26517 | 23901 ft | 463 kts | 42° |
| 2026-04-25 13:06 | 24.81347 | 118.29105 | 23680 ft | 462 kts | 42° |
| 2026-04-25 13:06 | 24.83533 | 118.31684 | 23429 ft | 460 kts | 42° |
| 2026-04-25 13:07 | 24.85709 | 118.34253 | 23162 ft | 457 kts | 42° |
| 2026-04-25 13:07 | 24.87870 | 118.36806 | 22926 ft | 455 kts | 41° |
| 2026-04-25 13:07 | 24.90026 | 118.39353 | 22666 ft | 454 kts | 42° |
| 2026-04-25 13:07 | 24.92174 | 118.41890 | 22406 ft | 451 kts | 42° |
| 2026-04-25 13:08 | 24.94310 | 118.44417 | 22165 ft | 449 kts | 42° |
| 2026-04-25 13:08 | 24.96421 | 118.46919 | 21900 ft | 445 kts | 42° |
| 2026-04-25 13:08 | 24.98522 | 118.49408 | 21654 ft | 442 kts | 42° |
| 2026-04-25 13:08 | 25.00616 | 118.51886 | 21404 ft | 439 kts | 42° |
| 2026-04-25 13:09 | 25.02689 | 118.54341 | 21161 ft | 436 kts | 41° |
| 2026-04-25 13:09 | 25.04736 | 118.56771 | 20896 ft | 429 kts | 41° |
| 2026-04-25 13:09 | 25.06751 | 118.59168 | 20466 ft | 424 kts | 41° |
| 2026-04-25 13:09 | 25.08749 | 118.61545 | 20020 ft | 420 kts | 41° |
| 2026-04-25 13:10 | 25.10730 | 118.63898 | 19600 ft | 416 kts | 41° |
| 2026-04-25 13:10 | 25.12685 | 118.66223 | 19155 ft | 411 kts | 41° |
| 2026-04-25 13:10 | 25.14618 | 118.68521 | 18716 ft | 407 kts | 41° |
| 2026-04-25 13:10 | 25.16536 | 118.70800 | 18257 ft | 403 kts | 41° |
| 2026-04-25 13:11 | 25.18431 | 118.73052 | 17795 ft | 397 kts | 41° |
| 2026-04-25 13:11 | 25.20297 | 118.75271 | 17366 ft | 392 kts | 41° |
| 2026-04-25 13:11 | 25.22143 | 118.77470 | 16925 ft | 389 kts | 42° |
| 2026-04-25 13:11 | 25.23980 | 118.79657 | 16508 ft | 387 kts | 42° |
| 2026-04-25 13:12 | 25.25801 | 118.81826 | 16086 ft | 383 kts | 42° |
| 2026-04-25 13:12 | 25.27600 | 118.83973 | 15660 ft | 379 kts | 42° |
| 2026-04-25 13:12 | 25.29383 | 118.86101 | 15246 ft | 375 kts | 43° |
| 2026-04-25 13:12 | 25.30555 | 118.87501 | 14966 ft | 373 kts | 43° |
| 2026-04-25 13:13 | 25.32877 | 118.90279 | 14406 ft | 370 kts | 43° |
| 2026-04-25 13:13 | 25.34619 | 118.92363 | 13972 ft | 369 kts | 44° |
| 2026-04-25 13:13 | 25.36370 | 118.94433 | 13510 ft | 367 kts | 43° |
| 2026-04-25 13:13 | 25.38120 | 118.96479 | 13069 ft | 365 kts | 43° |
| 2026-04-25 13:14 | 25.39862 | 118.98503 | 12635 ft | 361 kts | 43° |
| 2026-04-25 13:14 | 25.41591 | 119.00508 | 12187 ft | 359 kts | 43° |
| 2026-04-25 13:14 | 25.43306 | 119.02498 | 11741 ft | 356 kts | 44° |
| 2026-04-25 13:14 | 25.45008 | 119.04477 | 11295 ft | 354 kts | 44° |
| 2026-04-25 13:15 | 25.46696 | 119.06448 | 10845 ft | 352 kts | 44° |
| 2026-04-25 13:15 | 25.48373 | 119.08408 | 10509 ft | 346 kts | 44° |
| 2026-04-25 13:15 | 25.49997 | 119.10311 | 10390 ft | 334 kts | 44° |
| 2026-04-25 13:15 | 25.51564 | 119.12147 | 10269 ft | 322 kts | 44° |
| 2026-04-25 13:16 | 25.53074 | 119.13914 | 10153 ft | 311 kts | 44° |
| 2026-04-25 13:16 | 25.54544 | 119.15634 | 9891 ft | 305 kts | 44° |
| 2026-04-25 13:16 | 25.56004 | 119.17338 | 9495 ft | 303 kts | 44° |
| 2026-04-25 13:16 | 25.57447 | 119.19026 | 9082 ft | 302 kts | 44° |
| 2026-04-25 13:17 | 25.58876 | 119.20702 | 8768 ft | 297 kts | 44° |
| 2026-04-25 13:17 | 25.60298 | 119.22369 | 8403 ft | 296 kts | 44° |
| 2026-04-25 13:17 | 25.61686 | 119.24030 | 8082 ft | 293 kts | 49° |
| 2026-04-25 13:17 | 25.62844 | 119.25891 | 7721 ft | 292 kts | 55° |
| 2026-04-25 13:18 | 25.63949 | 119.27764 | 7363 ft | 290 kts | 55° |
| 2026-04-25 13:18 | 25.65040 | 119.29608 | 7053 ft | 286 kts | 55° |
| 2026-04-25 13:18 | 25.66136 | 119.31453 | 6728 ft | 283 kts | 55° |
| 2026-04-25 13:18 | 25.67213 | 119.33269 | 6389 ft | 280 kts | 55° |
| 2026-04-25 13:19 | 25.68273 | 119.35057 | 6059 ft | 277 kts | 55° |
| 2026-04-25 13:19 | 25.69323 | 119.36830 | 5786 ft | 274 kts | 55° |
| 2026-04-25 13:19 | 25.70355 | 119.38575 | 5574 ft | 266 kts | 55° |
| 2026-04-25 13:19 | 25.70683 | 119.39130 | 5492 ft | 264 kts | 55° |
| 2026-04-25 13:20 | 25.72361 | 119.41960 | 4918 ft | 260 kts | 56° |
| 2026-04-25 13:20 | 25.73341 | 119.43610 | 4572 ft | 259 kts | 55° |
| 2026-04-25 13:20 | 25.74325 | 119.45276 | 4220 ft | 258 kts | 58° |
| 2026-04-25 13:20 | 25.74920 | 119.47134 | 3871 ft | 257 kts | 85° |
| 2026-04-25 13:21 | 25.74699 | 119.49081 | 3528 ft | 256 kts | 111° |
| 2026-04-25 13:21 | 25.73941 | 119.50853 | 3183 ft | 254 kts | 111° |
| 2026-04-25 13:21 | 25.73659 | 119.52731 | 3013 ft | 242 kts | 85° |
| 2026-04-25 13:21 | 25.74078 | 119.54440 | 3038 ft | 221 kts | 63° |
| 2026-04-25 13:22 | 25.74961 | 119.55738 | 3021 ft | 204 kts | 43° |
| 2026-04-25 13:22 | 25.76100 | 119.56565 | 3012 ft | 189 kts | 27° |
| 2026-04-25 13:22 | 25.77249 | 119.57208 | 3026 ft | 180 kts | 29° |
| 2026-04-25 13:23 | 25.79279 | 119.58349 | 2793 ft | 149 kts | 30° |
| 2026-04-25 13:23 | 25.80187 | 119.58860 | 2617 ft | 144 kts | 30° |
| 2026-04-25 13:23 | 25.81068 | 119.59355 | 2431 ft | 143 kts | 29° |
| 2026-04-25 13:23 | 25.81948 | 119.59851 | 2246 ft | 142 kts | 29° |
| 2026-04-25 13:24 | 25.82820 | 119.60341 | 2063 ft | 139 kts | 29° |
| 2026-04-25 13:24 | 25.83685 | 119.60828 | 1880 ft | 139 kts | 31° |
| 2026-04-25 13:24 | 25.84541 | 119.61309 | 1691 ft | 138 kts | 30° |
| 2026-04-25 13:24 | 25.85395 | 119.61790 | 1513 ft | 137 kts | 29° |
| 2026-04-25 13:25 | 25.86240 | 119.62265 | 1328 ft | 136 kts | 28° |
| 2026-04-25 13:25 | 25.87085 | 119.62741 | 1147 ft | 136 kts | 27° |
| 2026-04-25 13:25 | 25.87930 | 119.63216 | 964 ft | 136 kts | 26° |
| 2026-04-25 13:25 | 25.88775 | 119.63692 | 782 ft | 137 kts | 26° |
| 2026-04-25 13:26 | 25.89626 | 119.64171 | 605 ft | 137 kts | 27° |
| 2026-04-25 13:26 | 25.90486 | 119.64656 | 418 ft | 138 kts | 26° |
| 2026-04-25 13:26 | 25.91346 | 119.65139 | 237 ft | 139 kts | 26° |
| 2026-04-25 13:26 | 25.92202 | 119.65629 | 83 ft | 138 kts | 26° |
| 2026-04-25 13:27 | 25.93027 | 119.66090 | 21 ft | 122 kts | 25° |
| 2026-04-25 13:27 | 25.93591 | 119.66409 | 19 ft | 44 kts | 35° |
| 2026-04-25 13:27 | 25.93788 | 119.66517 | 17 ft | 27 kts | 23° |
| 2026-04-25 13:27 | 25.93948 | 119.66616 | 18 ft | 25 kts | 34° |
| 2026-04-25 13:28 | 25.94056 | 119.66763 | 20 ft | 24 kts | 52° |
| 2026-04-25 13:28 | 25.94082 | 119.66812 | 21 ft | 22 kts | 74° |
| 2026-04-25 13:28 | 25.93977 | 119.66846 | 22 ft | 12 kts | 210° |
| 2026-04-25 13:28 | 25.93930 | 119.66819 | 22 ft | 11 kts | 207° |
| 2026-04-25 13:29 | 25.93862 | 119.66780 | 23 ft | 11 kts | 205° |
| 2026-04-25 13:29 | 25.93800 | 119.66792 | 23 ft | 8 kts | 135° |
| 2026-04-25 13:29 | 25.93768 | 119.66862 | 23 ft | 7 kts | 111° |
| 2026-04-25 13:30 | 25.93727 | 119.66909 | 23 ft | 4 kts | 174° |
| 2026-04-25 13:30 | 25.93703 | 119.66908 | 23 ft | 3 kts | 172° |
| 2026-04-25 13:30 | 25.93680 | 119.66929 | 23 ft | 4 kts | 132° |
| 2026-04-25 13:31 | 25.93658 | 119.66980 | 23 ft | 5 kts | 118° |
| 2026-04-25 13:31 | 25.93657 | 119.66981 | 23 ft | 0 kts | 118° |